sensor_id;sensor_type;location;lat;lon;timestamp;pressure;altitude;pressure_sealevel;temperature;humidity
63556;BME280;49700;48.072;7.800;2023-02-10T00:00:06;101558.03;;;-0.94;68.90
63556;BME280;49700;48.072;7.800;2023-02-10T00:02:31;101556.25;;;-0.98;69.20
63556;BME280;49700;48.072;7.800;2023-02-10T00:04:57;101557.09;;;-0.99;68.74
63556;BME280;49700;48.072;7.800;2023-02-10T00:07:22;101551.00;;;-1.03;69.30
63556;BME280;49700;48.072;7.800;2023-02-10T00:09:49;101559.59;;;-1.04;69.33
63556;BME280;49700;48.072;7.800;2023-02-10T00:12:15;101557.88;;;-1.03;69.17
63556;BME280;49700;48.072;7.800;2023-02-10T00:14:40;101558.69;;;-1.07;69.39
63556;BME280;49700;48.072;7.800;2023-02-10T00:17:06;101556.97;;;-1.07;69.32
63556;BME280;49700;48.072;7.800;2023-02-10T00:19:31;101552.69;;;-1.08;69.26
63556;BME280;49700;48.072;7.800;2023-02-10T00:21:58;101550.94;;;-1.10;69.46
63556;BME280;49700;48.072;7.800;2023-02-10T00:24:24;101545.66;;;-1.17;69.40
63556;BME280;49700;48.072;7.800;2023-02-10T00:26:50;101554.16;;;-1.22;69.26
63556;BME280;49700;48.072;7.800;2023-02-10T00:29:15;101546.41;;;-1.24;69.41
63556;BME280;49700;48.072;7.800;2023-02-10T00:31:41;101548.19;;;-1.21;69.37
63556;BME280;49700;48.072;7.800;2023-02-10T00:34:11;101550.81;;;-1.17;69.43
63556;BME280;49700;48.072;7.800;2023-02-10T00:36:37;101550.84;;;-1.14;69.44
63556;BME280;49700;48.072;7.800;2023-02-10T00:39:02;101547.44;;;-1.11;69.16
63556;BME280;49700;48.072;7.800;2023-02-10T00:41:28;101548.34;;;-1.09;69.28
63556;BME280;49700;48.072;7.800;2023-02-10T00:43:53;101548.34;;;-1.10;69.36
63556;BME280;49700;48.072;7.800;2023-02-10T00:46:21;101550.03;;;-1.11;69.19
63556;BME280;49700;48.072;7.800;2023-02-10T00:48:47;101540.59;;;-1.10;69.06
63556;BME280;49700;48.072;7.800;2023-02-10T00:51:13;101547.50;;;-1.09;68.82
63556;BME280;49700;48.072;7.800;2023-02-10T00:53:39;101544.06;;;-1.08;69.08
63556;BME280;49700;48.072;7.800;2023-02-10T00:56:05;101543.19;;;-1.09;69.04
63556;BME280;49700;48.072;7.800;2023-02-10T00:58:33;101547.50;;;-1.09;69.16
63556;BME280;49700;48.072;7.800;2023-02-10T01:00:58;101543.13;;;-1.14;68.96
63556;BME280;49700;48.072;7.800;2023-02-10T01:03:24;101541.31;;;-1.21;68.90
63556;BME280;49700;48.072;7.800;2023-02-10T01:05:50;101543.84;;;-1.24;69.05
63556;BME280;49700;48.072;7.800;2023-02-10T01:08:16;101545.47;;;-1.27;69.15
63556;BME280;49700;48.072;7.800;2023-02-10T01:10:42;101543.72;;;-1.30;69.33
63556;BME280;49700;48.072;7.800;2023-02-10T01:13:09;101548.00;;;-1.30;69.04
63556;BME280;49700;48.072;7.800;2023-02-10T01:15:35;101544.59;;;-1.29;69.26
63556;BME280;49700;48.072;7.800;2023-02-10T01:18:01;101541.13;;;-1.31;69.04
63556;BME280;49700;48.072;7.800;2023-02-10T01:20:27;101541.03;;;-1.38;69.15
63556;BME280;49700;48.072;7.800;2023-02-10T01:22:52;101546.16;;;-1.39;69.30
63556;BME280;49700;48.072;7.800;2023-02-10T01:25:18;101549.59;;;-1.40;69.38
63556;BME280;49700;48.072;7.800;2023-02-10T01:27:44;101549.56;;;-1.42;69.25
63556;BME280;49700;48.072;7.800;2023-02-10T01:30:10;101552.19;;;-1.39;69.23
63556;BME280;49700;48.072;7.800;2023-02-10T01:32:35;101555.63;;;-1.38;69.16
63556;BME280;49700;48.072;7.800;2023-02-10T01:35:03;101556.50;;;-1.38;68.80
63556;BME280;49700;48.072;7.800;2023-02-10T01:37:29;101555.63;;;-1.38;69.31
63556;BME280;49700;48.072;7.800;2023-02-10T01:39:55;101561.50;;;-1.47;68.96
63556;BME280;49700;48.072;7.800;2023-02-10T01:42:20;101565.56;;;-1.60;69.23
63556;BME280;49700;48.072;7.800;2023-02-10T01:47:12;101565.31;;;-1.75;69.61
63556;BME280;49700;48.072;7.800;2023-02-10T01:49:41;101564.38;;;-1.79;69.83
63556;BME280;49700;48.072;7.800;2023-02-10T01:52:15;101565.25;;;-1.78;69.70
63556;BME280;49700;48.072;7.800;2023-02-10T01:54:46;101566.94;;;-1.80;69.67
63556;BME280;49700;48.072;7.800;2023-02-10T01:57:13;101558.28;;;-1.82;69.86
63556;BME280;49700;48.072;7.800;2023-02-10T01:59:41;101561.78;;;-1.80;69.90
63556;BME280;49700;48.072;7.800;2023-02-10T02:02:08;101566.97;;;-1.77;69.95
63556;BME280;49700;48.072;7.800;2023-02-10T02:04:41;101568.75;;;-1.73;70.04
63556;BME280;49700;48.072;7.800;2023-02-10T02:07:10;101578.25;;;-1.72;69.50
63556;BME280;49700;48.072;7.800;2023-02-10T02:09:36;101578.28;;;-1.69;69.49
63556;BME280;49700;48.072;7.800;2023-02-10T02:17:39;101584.34;;;-1.67;69.34
63556;BME280;49700;48.072;7.800;2023-02-10T02:23:20;101567.03;;;-1.74;69.49
63556;BME280;49700;48.072;7.800;2023-02-10T02:26:02;101567.84;;;-1.76;69.49
63556;BME280;49700;48.072;7.800;2023-02-10T02:36:57;101567.66;;;-1.87;69.91
63556;BME280;49700;48.072;7.800;2023-02-10T02:39:23;101574.56;;;-1.86;69.67
63556;BME280;49700;48.072;7.800;2023-02-10T02:42:13;101571.09;;;-1.87;69.64
63556;BME280;49700;48.072;7.800;2023-02-10T02:44:39;101576.22;;;-1.88;69.59
63556;BME280;49700;48.072;7.800;2023-02-10T02:48:04;101566.72;;;-1.91;69.39
63556;BME280;49700;48.072;7.800;2023-02-10T02:50:13;101574.25;;;-2.00;69.66
63556;BME280;49700;48.072;7.800;2023-02-10T02:53:12;101578.44;;;-2.07;69.99
63556;BME280;49700;48.072;7.800;2023-02-10T02:55:52;101574.84;;;-2.15;69.99
63556;BME280;49700;48.072;7.800;2023-02-10T02:58:46;101572.22;;;-2.16;70.14
63556;BME280;49700;48.072;7.800;2023-02-10T03:01:36;101564.50;;;-2.18;69.89
63556;BME280;49700;48.072;7.800;2023-02-10T03:04:11;101576.56;;;-2.15;69.95
63556;BME280;49700;48.072;7.800;2023-02-10T03:06:39;101585.19;;;-2.12;69.83
63556;BME280;49700;48.072;7.800;2023-02-10T03:09:06;101591.13;;;-2.16;69.78
63556;BME280;49700;48.072;7.800;2023-02-10T03:11:38;101592.75;;;-2.19;69.92
63556;BME280;49700;48.072;7.800;2023-02-10T03:14:06;101596.13;;;-2.24;69.91
63556;BME280;49700;48.072;7.800;2023-02-10T03:16:38;101603.84;;;-2.24;69.99
63556;BME280;49700;48.072;7.800;2023-02-10T03:19:09;101604.72;;;-2.23;69.83
63556;BME280;49700;48.072;7.800;2023-02-10T03:21:38;101603.88;;;-2.22;69.98
63556;BME280;49700;48.072;7.800;2023-02-10T03:24:06;101603.81;;;-2.25;69.85
63556;BME280;49700;48.072;7.800;2023-02-10T03:26:34;101598.59;;;-2.28;69.93
63556;BME280;49700;48.072;7.800;2023-02-10T03:29:05;101602.88;;;-2.29;70.03
63556;BME280;49700;48.072;7.800;2023-02-10T03:31:32;101608.91;;;-2.28;70.12
63556;BME280;49700;48.072;7.800;2023-02-10T03:33:57;101597.72;;;-2.29;69.84
63556;BME280;49700;48.072;7.800;2023-02-10T03:36:23;101599.44;;;-2.29;69.82
63556;BME280;49700;48.072;7.800;2023-02-10T03:38:48;101604.59;;;-2.29;69.87
63556;BME280;49700;48.072;7.800;2023-02-10T03:41:14;101603.69;;;-2.31;69.82
63556;BME280;49700;48.072;7.800;2023-02-10T03:43:40;101607.13;;;-2.31;69.76
63556;BME280;49700;48.072;7.800;2023-02-10T03:46:09;101603.63;;;-2.33;70.15
63556;BME280;49700;48.072;7.800;2023-02-10T03:48:34;101609.63;;;-2.34;70.16
63556;BME280;49700;48.072;7.800;2023-02-10T03:51:02;101607.94;;;-2.33;70.17
63556;BME280;49700;48.072;7.800;2023-02-10T03:53:30;101616.50;;;-2.33;70.28
63556;BME280;49700;48.072;7.800;2023-02-10T03:55:57;101627.66;;;-2.32;69.92
63556;BME280;49700;48.072;7.800;2023-02-10T03:58:22;101622.50;;;-2.34;70.30
63556;BME280;49700;48.072;7.800;2023-02-10T04:00:48;101631.06;;;-2.35;70.04
63556;BME280;49700;48.072;7.800;2023-02-10T04:03:14;101630.97;;;-2.38;70.24
63556;BME280;49700;48.072;7.800;2023-02-10T04:05:39;101632.59;;;-2.43;69.94
63556;BME280;49700;48.072;7.800;2023-02-10T04:08:05;101627.41;;;-2.45;70.53
63556;BME280;49700;48.072;7.800;2023-02-10T04:10:31;101639.44;;;-2.43;70.49
63556;BME280;49700;48.072;7.800;2023-02-10T04:12:56;101640.34;;;-2.43;70.31
63556;BME280;49700;48.072;7.800;2023-02-10T04:15:22;101639.47;;;-2.42;70.76
63556;BME280;49700;48.072;7.800;2023-02-10T04:17:47;101637.72;;;-2.45;70.29
63556;BME280;49700;48.072;7.800;2023-02-10T04:20:13;101634.16;;;-2.50;70.59
63556;BME280;49700;48.072;7.800;2023-02-10T04:22:39;101638.41;;;-2.52;70.92
63556;BME280;49700;48.072;7.800;2023-02-10T04:25:05;101638.44;;;-2.50;70.73
63556;BME280;49700;48.072;7.800;2023-02-10T04:27:31;101629.06;;;-2.47;70.56
63556;BME280;49700;48.072;7.800;2023-02-10T04:29:57;101634.28;;;-2.43;70.71
63556;BME280;49700;48.072;7.800;2023-02-10T04:32:22;101637.81;;;-2.40;70.53
63556;BME280;49700;48.072;7.800;2023-02-10T04:34:48;101641.31;;;-2.36;70.63
63556;BME280;49700;48.072;7.800;2023-02-10T04:37:14;101643.97;;;-2.33;70.38
63556;BME280;49700;48.072;7.800;2023-02-10T04:39:39;101635.38;;;-2.34;70.36
63556;BME280;49700;48.072;7.800;2023-02-10T04:42:05;101648.25;;;-2.34;70.44
63556;BME280;49700;48.072;7.800;2023-02-10T04:44:30;101646.53;;;-2.33;70.28
63556;BME280;49700;48.072;7.800;2023-02-10T04:46:55;101650.81;;;-2.34;70.46
63556;BME280;49700;48.072;7.800;2023-02-10T04:49:21;101643.03;;;-2.35;70.15
63556;BME280;49700;48.072;7.800;2023-02-10T04:51:47;101648.19;;;-2.35;70.36
63556;BME280;49700;48.072;7.800;2023-02-10T04:54:13;101649.91;;;-2.36;69.98
63556;BME280;49700;48.072;7.800;2023-02-10T04:56:38;101646.47;;;-2.36;70.34
63556;BME280;49700;48.072;7.800;2023-02-10T04:59:04;101644.75;;;-2.37;70.28
63556;BME280;49700;48.072;7.800;2023-02-10T05:01:29;101642.97;;;-2.38;70.19
63556;BME280;49700;48.072;7.800;2023-02-10T05:03:54;101639.50;;;-2.40;70.26
63556;BME280;49700;48.072;7.800;2023-02-10T05:06:20;101645.50;;;-2.41;70.16
63556;BME280;49700;48.072;7.800;2023-02-10T05:08:45;101636.88;;;-2.43;69.77
63556;BME280;49700;48.072;7.800;2023-02-10T05:11:13;101642.00;;;-2.45;70.15
63556;BME280;49700;48.072;7.800;2023-02-10T05:13:39;101647.09;;;-2.47;70.29
63556;BME280;49700;48.072;7.800;2023-02-10T05:16:06;101648.84;;;-2.46;70.16
63556;BME280;49700;48.072;7.800;2023-02-10T05:18:32;101649.66;;;-2.47;70.18
63556;BME280;49700;48.072;7.800;2023-02-10T05:20:59;101639.31;;;-2.50;70.16
63556;BME280;49700;48.072;7.800;2023-02-10T05:23:25;101649.50;;;-2.54;70.15
63556;BME280;49700;48.072;7.800;2023-02-10T05:25:51;101652.91;;;-2.55;70.03
63556;BME280;49700;48.072;7.800;2023-02-10T05:28:17;101646.00;;;-2.58;70.06
63556;BME280;49700;48.072;7.800;2023-02-10T05:30:42;101651.97;;;-2.59;70.26
63556;BME280;49700;48.072;7.800;2023-02-10T05:33:08;101649.34;;;-2.60;70.35
63556;BME280;49700;48.072;7.800;2023-02-10T05:35:33;101646.84;;;-2.59;70.59
63556;BME280;49700;48.072;7.800;2023-02-10T05:37:59;101652.84;;;-2.57;70.71
63556;BME280;49700;48.072;7.800;2023-02-10T05:40:27;101655.41;;;-2.58;70.59
63556;BME280;49700;48.072;7.800;2023-02-10T05:42:53;101651.00;;;-2.64;70.43
63556;BME280;49700;48.072;7.800;2023-02-10T05:45:19;101641.44;;;-2.70;70.34
63556;BME280;49700;48.072;7.800;2023-02-10T05:47:44;101642.19;;;-2.74;70.51
63556;BME280;49700;48.072;7.800;2023-02-10T05:50:10;101649.03;;;-2.74;70.70
63556;BME280;49700;48.072;7.800;2023-02-10T05:52:35;101647.38;;;-2.72;70.47
63556;BME280;49700;48.072;7.800;2023-02-10T05:55:03;101642.25;;;-2.72;70.39
63556;BME280;49700;48.072;7.800;2023-02-10T05:57:29;101644.75;;;-2.74;70.21
63556;BME280;49700;48.072;7.800;2023-02-10T05:59:54;101645.44;;;-2.81;70.27
63556;BME280;49700;48.072;7.800;2023-02-10T06:02:20;101656.56;;;-2.83;70.37
63556;BME280;49700;48.072;7.800;2023-02-10T06:04:45;101666.00;;;-2.82;70.51
63556;BME280;49700;48.072;7.800;2023-02-10T06:07:11;101663.44;;;-2.81;70.34
63556;BME280;49700;48.072;7.800;2023-02-10T06:09:40;101669.50;;;-2.79;70.11
63556;BME280;49700;48.072;7.800;2023-02-10T06:12:06;101668.69;;;-2.78;70.34
63556;BME280;49700;48.072;7.800;2023-02-10T06:14:35;101664.41;;;-2.76;70.08
63556;BME280;49700;48.072;7.800;2023-02-10T06:17:04;101674.75;;;-2.74;70.13
63556;BME280;49700;48.072;7.800;2023-02-10T06:19:38;101685.13;;;-2.71;70.19
63556;BME280;49700;48.072;7.800;2023-02-10T06:22:11;101679.97;;;-2.71;70.12
63556;BME280;49700;48.072;7.800;2023-02-10T06:24:39;101684.22;;;-2.73;70.03
63556;BME280;49700;48.072;7.800;2023-02-10T06:27:07;101685.00;;;-2.76;69.83
63556;BME280;49700;48.072;7.800;2023-02-10T06:29:35;101679.84;;;-2.77;69.86
63556;BME280;49700;48.072;7.800;2023-02-10T06:32:00;101684.91;;;-2.80;69.94
63556;BME280;49700;48.072;7.800;2023-02-10T06:34:26;101686.63;;;-2.79;70.00
63556;BME280;49700;48.072;7.800;2023-02-10T06:36:51;101684.91;;;-2.80;70.00
63556;BME280;49700;48.072;7.800;2023-02-10T06:39:17;101684.00;;;-2.81;70.25
63556;BME280;49700;48.072;7.800;2023-02-10T06:41:43;101691.78;;;-2.79;70.41
63556;BME280;49700;48.072;7.800;2023-02-10T06:44:08;101689.22;;;-2.79;70.18
63556;BME280;49700;48.072;7.800;2023-02-10T06:46:34;101699.56;;;-2.78;70.16
63556;BME280;49700;48.072;7.800;2023-02-10T06:48:59;101707.25;;;-2.78;70.15
63556;BME280;49700;48.072;7.800;2023-02-10T06:51:26;101707.28;;;-2.76;69.92
63556;BME280;49700;48.072;7.800;2023-02-10T06:53:52;101704.75;;;-2.75;70.01
63556;BME280;49700;48.072;7.800;2023-02-10T06:56:17;101710.78;;;-2.74;69.83
63556;BME280;49700;48.072;7.800;2023-02-10T06:58:44;101707.34;;;-2.73;69.84
63556;BME280;49700;48.072;7.800;2023-02-10T07:01:11;101714.25;;;-2.72;69.58
63556;BME280;49700;48.072;7.800;2023-02-10T07:03:37;101717.72;;;-2.70;69.59
63556;BME280;49700;48.072;7.800;2023-02-10T07:06:06;101717.75;;;-2.69;69.63
63556;BME280;49700;48.072;7.800;2023-02-10T07:08:32;101713.53;;;-2.67;69.73
63556;BME280;49700;48.072;7.800;2023-02-10T07:10:57;101722.19;;;-2.63;69.36
63556;BME280;49700;48.072;7.800;2023-02-10T07:13:22;101719.72;;;-2.58;69.32
63556;BME280;49700;48.072;7.800;2023-02-10T07:15:48;101718.97;;;-2.54;69.01
63556;BME280;49700;48.072;7.800;2023-02-10T07:18:13;101722.50;;;-2.49;69.14
63556;BME280;49700;48.072;7.800;2023-02-10T07:20:39;101718.34;;;-2.44;69.24
63556;BME280;49700;48.072;7.800;2023-02-10T07:23:05;101719.38;;;-2.37;69.22
63556;BME280;49700;48.072;7.800;2023-02-10T07:25:30;101734.88;;;-2.34;68.91
63556;BME280;49700;48.072;7.800;2023-02-10T07:27:56;101729.81;;;-2.31;68.92
63556;BME280;49700;48.072;7.800;2023-02-10T07:30:21;101730.78;;;-2.26;68.83
63556;BME280;49700;48.072;7.800;2023-02-10T07:32:46;101732.63;;;-2.20;69.07
63556;BME280;49700;48.072;7.800;2023-02-10T07:35:12;101734.47;;;-2.13;68.68
63556;BME280;49700;48.072;7.800;2023-02-10T07:37:38;101729.50;;;-2.06;68.99
63556;BME280;49700;48.072;7.800;2023-02-10T07:40:04;101737.41;;;-1.98;68.69
63556;BME280;49700;48.072;7.800;2023-02-10T07:42:30;101729.84;;;-1.90;68.63
63556;BME280;49700;48.072;7.800;2023-02-10T07:45:14;101736.03;;;-1.82;68.60
63556;BME280;49700;48.072;7.800;2023-02-10T07:47:39;101733.56;;;-1.76;68.29
63556;BME280;49700;48.072;7.800;2023-02-10T07:50:05;101738.88;;;-1.70;68.21
63556;BME280;49700;48.072;7.800;2023-02-10T07:52:31;101744.09;;;-1.65;67.90
63556;BME280;49700;48.072;7.800;2023-02-10T07:54:57;101745.13;;;-1.59;67.79
63556;BME280;49700;48.072;7.800;2023-02-10T07:57:23;101746.88;;;-1.56;67.91
63556;BME280;49700;48.072;7.800;2023-02-10T07:59:49;101747.84;;;-1.51;67.40
63556;BME280;49700;48.072;7.800;2023-02-10T08:02:14;101746.25;;;-1.46;67.61
63556;BME280;49700;48.072;7.800;2023-02-10T08:04:39;101746.38;;;-1.38;67.48
63556;BME280;49700;48.072;7.800;2023-02-10T08:07:05;101738.78;;;-1.30;67.26
63556;BME280;49700;48.072;7.800;2023-02-10T08:09:31;101737.28;;;-1.19;67.08
63556;BME280;49700;48.072;7.800;2023-02-10T08:11:56;101746.97;;;-1.07;67.13
63556;BME280;49700;48.072;7.800;2023-02-10T08:14:21;101743.72;;;-0.96;66.81
63556;BME280;49700;48.072;7.800;2023-02-10T08:16:47;101746.50;;;-0.85;66.80
63556;BME280;49700;48.072;7.800;2023-02-10T08:19:13;101750.13;;;-0.74;66.71
63556;BME280;49700;48.072;7.800;2023-02-10T08:21:39;101740.91;;;-0.61;66.78
63556;BME280;49700;48.072;7.800;2023-02-10T08:24:06;101748.84;;;-0.49;66.56
63556;BME280;49700;48.072;7.800;2023-02-10T08:26:31;101752.47;;;-0.37;66.71
63556;BME280;49700;48.072;7.800;2023-02-10T08:28:57;101758.66;;;-0.25;66.44
63556;BME280;49700;48.072;7.800;2023-02-10T08:31:24;101751.06;;;-0.14;66.23
63556;BME280;49700;48.072;7.800;2023-02-10T08:33:50;101748.66;;;-0.03;66.19
63556;BME280;49700;48.072;7.800;2023-02-10T08:36:17;101745.38;;;0.10;65.99
63556;BME280;49700;48.072;7.800;2023-02-10T08:38:45;101742.09;;;0.20;65.98
63556;BME280;49700;48.072;7.800;2023-02-10T08:41:11;101745.69;;;0.32;65.75
63556;BME280;49700;48.072;7.800;2023-02-10T08:43:40;101744.97;;;0.45;65.75
63556;BME280;49700;48.072;7.800;2023-02-10T08:46:06;101745.97;;;0.56;65.59
63556;BME280;49700;48.072;7.800;2023-02-10T08:48:32;101754.75;;;0.69;65.36
63556;BME280;49700;48.072;7.800;2023-02-10T08:50:58;101752.31;;;0.81;65.36
63556;BME280;49700;48.072;7.800;2023-02-10T08:53:24;101751.53;;;0.90;65.29
63556;BME280;49700;48.072;7.800;2023-02-10T08:56:02;101746.66;;;1.24;65.27
63556;BME280;49700;48.072;7.800;2023-02-10T08:58:31;101748.19;;;2.12;63.99
63556;BME280;49700;48.072;7.800;2023-02-10T09:00:57;101738.16;;;3.22;62.05
63556;BME280;49700;48.072;7.800;2023-02-10T09:03:25;101733.66;;;4.35;59.68
63556;BME280;49700;48.072;7.800;2023-02-10T09:05:52;101731.34;;;5.32;57.51
63556;BME280;49700;48.072;7.800;2023-02-10T09:08:17;101724.53;;;6.11;55.88
63556;BME280;49700;48.072;7.800;2023-02-10T09:10:47;101724.59;;;6.78;54.50
63556;BME280;49700;48.072;7.800;2023-02-10T09:13:12;101717.44;;;7.45;52.89
63556;BME280;49700;48.072;7.800;2023-02-10T09:15:40;101721.00;;;8.34;50.20
63556;BME280;49700;48.072;7.800;2023-02-10T09:18:06;101707.97;;;9.12;47.12
63556;BME280;49700;48.072;7.800;2023-02-10T09:20:32;101701.19;;;9.73;44.89
63556;BME280;49700;48.072;7.800;2023-02-10T09:22:57;101698.59;;;10.35;43.03
63556;BME280;49700;48.072;7.800;2023-02-10T09:25:23;101696.81;;;10.66;42.71
63556;BME280;49700;48.072;7.800;2023-02-10T09:27:51;101693.31;;;10.65;42.58
63556;BME280;49700;48.072;7.800;2023-02-10T09:30:17;101693.13;;;10.71;42.64
63556;BME280;49700;48.072;7.800;2023-02-10T09:32:42;101693.19;;;10.70;41.99
63556;BME280;49700;48.072;7.800;2023-02-10T09:35:08;101694.78;;;10.75;42.31
63556;BME280;49700;48.072;7.800;2023-02-10T09:37:33;101695.09;;;10.93;41.55
63556;BME280;49700;48.072;7.800;2023-02-10T09:39:59;101698.94;;;11.09;40.88
63556;BME280;49700;48.072;7.800;2023-02-10T09:45:32;101692.16;;;11.28;40.17
63556;BME280;49700;48.072;7.800;2023-02-10T09:53:25;101691.00;;;11.64;38.46
63556;BME280;49700;48.072;7.800;2023-02-10T09:55:59;101692.94;;;11.59;38.22
63556;BME280;49700;48.072;7.800;2023-02-10T09:58:39;101699.78;;;11.38;38.54
63556;BME280;49700;48.072;7.800;2023-02-10T10:01:27;101690.44;;;11.01;38.87
63556;BME280;49700;48.072;7.800;2023-02-10T10:03:57;101693.78;;;10.50;39.94
63556;BME280;49700;48.072;7.800;2023-02-10T10:06:28;101694.09;;;10.08;40.85
63556;BME280;49700;48.072;7.800;2023-02-10T10:14:01;101710.56;;;9.13;43.06
63556;BME280;49700;48.072;7.800;2023-02-10T10:30:25;101711.22;;;7.50;47.92
63556;BME280;49700;48.072;7.800;2023-02-10T10:32:58;101711.69;;;7.23;48.74
63556;BME280;49700;48.072;7.800;2023-02-10T10:35:41;101710.25;;;7.05;49.81
63556;BME280;49700;48.072;7.800;2023-02-10T10:38:14;101715.59;;;6.97;50.38
63556;BME280;49700;48.072;7.800;2023-02-10T10:40:43;101712.13;;;6.97;50.76
63556;BME280;49700;48.072;7.800;2023-02-10T10:43:17;101699.06;;;6.97;50.79
63556;BME280;49700;48.072;7.800;2023-02-10T10:45:51;101699.91;;;6.97;50.87
63556;BME280;49700;48.072;7.800;2023-02-10T10:48:23;101702.59;;;6.93;50.82
63556;BME280;49700;48.072;7.800;2023-02-10T10:50:53;101706.25;;;6.79;51.00
63556;BME280;49700;48.072;7.800;2023-02-10T10:56:11;101703.09;;;6.56;51.41
63556;BME280;49700;48.072;7.800;2023-02-10T10:58:40;101695.41;;;6.45;51.58
63556;BME280;49700;48.072;7.800;2023-02-10T11:01:08;101702.56;;;6.32;52.18
63556;BME280;49700;48.072;7.800;2023-02-10T11:03:34;101702.59;;;6.29;51.91
63556;BME280;49700;48.072;7.800;2023-02-10T11:06:01;101711.38;;;6.22;51.87
63556;BME280;49700;48.072;7.800;2023-02-10T11:08:34;101695.03;;;6.08;52.11
63556;BME280;49700;48.072;7.800;2023-02-10T11:11:02;101696.78;;;6.06;52.61
63556;BME280;49700;48.072;7.800;2023-02-10T11:13:33;101689.03;;;5.96;52.42
63556;BME280;49700;48.072;7.800;2023-02-10T11:16:12;101696.03;;;5.94;52.84
63556;BME280;49700;48.072;7.800;2023-02-10T11:18:54;101683.84;;;5.93;52.95
63556;BME280;49700;48.072;7.800;2023-02-10T11:21:21;101681.25;;;5.90;53.00
63556;BME280;49700;48.072;7.800;2023-02-10T11:23:51;101670.81;;;5.95;53.20
63556;BME280;49700;48.072;7.800;2023-02-10T11:26:23;101668.13;;;6.01;53.09
63556;BME280;49700;48.072;7.800;2023-02-10T11:28:50;101681.94;;;6.11;52.85
63556;BME280;49700;48.072;7.800;2023-02-10T11:31:27;101674.88;;;6.19;52.80
63556;BME280;49700;48.072;7.800;2023-02-10T11:34:12;101667.13;;;6.11;52.63
63556;BME280;49700;48.072;7.800;2023-02-10T11:36:41;101670.72;;;6.03;52.65
63556;BME280;49700;48.072;7.800;2023-02-10T11:39:37;101668.94;;;6.06;52.83
63556;BME280;49700;48.072;7.800;2023-02-10T11:42:21;101668.03;;;6.07;52.31
63556;BME280;49700;48.072;7.800;2023-02-10T11:45:10;101663.72;;;6.08;52.20
63556;BME280;49700;48.072;7.800;2023-02-10T11:47:40;101668.06;;;6.06;52.57
63556;BME280;49700;48.072;7.800;2023-02-10T11:50:27;101675.00;;;6.07;52.43
63556;BME280;49700;48.072;7.800;2023-02-10T11:52:53;101668.06;;;6.06;52.57
63556;BME280;49700;48.072;7.800;2023-02-10T11:55:21;101668.03;;;6.07;52.54
63556;BME280;49700;48.072;7.800;2023-02-10T11:58:14;101667.19;;;6.08;52.29
63556;BME280;49700;48.072;7.800;2023-02-10T12:01:16;101666.28;;;6.11;52.03
63556;BME280;49700;48.072;7.800;2023-02-10T12:06:42;101665.38;;;6.13;52.47
63556;BME280;49700;48.072;7.800;2023-02-10T12:09:30;101657.47;;;6.19;52.36
63556;BME280;49700;48.072;7.800;2023-02-10T12:14:47;101653.78;;;6.37;51.89
63556;BME280;49700;48.072;7.800;2023-02-10T12:17:45;101650.28;;;6.37;51.33
63556;BME280;49700;48.072;7.800;2023-02-10T12:20:18;101646.75;;;6.41;51.22
63556;BME280;49700;48.072;7.800;2023-02-10T12:33:45;101639.38;;;6.69;50.58
63556;BME280;49700;48.072;7.800;2023-02-10T12:36:26;101634.16;;;6.69;50.59
63556;BME280;49700;48.072;7.800;2023-02-10T12:41:47;101636.69;;;6.74;50.48
63556;BME280;49700;48.072;7.800;2023-02-10T12:53:35;101620.84;;;6.84;51.02
63556;BME280;49700;48.072;7.800;2023-02-10T12:58:34;101618.09;;;6.94;50.34
63556;BME280;49700;48.072;7.800;2023-02-10T13:03:42;101611.03;;;6.99;50.43
63556;BME280;49700;48.072;7.800;2023-02-10T13:06:17;101616.25;;;6.99;50.07
63556;BME280;49700;48.072;7.800;2023-02-10T13:08:58;101612.78;;;6.98;50.02
63556;BME280;49700;48.072;7.800;2023-02-10T13:11:36;101610.13;;;7.03;49.78
63556;BME280;49700;48.072;7.800;2023-02-10T13:14:13;101615.34;;;7.01;49.71
63556;BME280;49700;48.072;7.800;2023-02-10T13:16:40;101613.56;;;7.05;49.75
63556;BME280;49700;48.072;7.800;2023-02-10T13:21:48;101603.84;;;7.13;49.74
63556;BME280;49700;48.072;7.800;2023-02-10T13:24:39;101606.41;;;7.16;49.96
63556;BME280;49700;48.072;7.800;2023-02-10T13:27:45;101600.16;;;7.23;49.86
63556;BME280;49700;48.072;7.800;2023-02-10T13:30:43;101606.22;;;7.25;50.02
63556;BME280;49700;48.072;7.800;2023-02-10T13:33:20;101595.78;;;7.25;50.19
63556;BME280;49700;48.072;7.800;2023-02-10T13:35:51;101599.22;;;7.27;50.79
63556;BME280;49700;48.072;7.800;2023-02-10T13:38:19;101603.50;;;7.31;50.56
63556;BME280;49700;48.072;7.800;2023-02-10T13:43:40;101593.69;;;7.44;50.31
63556;BME280;49700;48.072;7.800;2023-02-10T13:46:27;101598.91;;;7.44;50.30
63556;BME280;49700;48.072;7.800;2023-02-10T13:48:55;101596.34;;;7.43;50.39
63556;BME280;49700;48.072;7.800;2023-02-10T13:51:29;101612.91;;;7.42;50.36
63556;BME280;49700;48.072;7.800;2023-02-10T13:53:57;101605.97;;;7.39;50.25
63556;BME280;49700;48.072;7.800;2023-02-10T14:01:37;101606.22;;;7.27;50.54
63556;BME280;49700;48.072;7.800;2023-02-10T14:06:44;101616.09;;;7.09;51.28
63556;BME280;49700;48.072;7.800;2023-02-10T14:11:57;101616.31;;;6.96;51.75
63556;BME280;49700;48.072;7.800;2023-02-10T14:14:30;101615.41;;;6.98;51.77
63556;BME280;49700;48.072;7.800;2023-02-10T14:17:20;101606.66;;;7.02;51.85
63556;BME280;49700;48.072;7.800;2023-02-10T14:19:48;101608.31;;;7.06;51.73
63556;BME280;49700;48.072;7.800;2023-02-10T14:22:33;101616.13;;;7.08;51.99
63556;BME280;49700;48.072;7.800;2023-02-10T14:27:32;101610.84;;;7.11;52.10
63556;BME280;49700;48.072;7.800;2023-02-10T14:30:05;101611.69;;;7.13;51.61
63556;BME280;49700;48.072;7.800;2023-02-10T14:32:44;101610.66;;;7.20;51.73
63556;BME280;49700;48.072;7.800;2023-02-10T14:35:23;101614.91;;;7.27;51.86
63556;BME280;49700;48.072;7.800;2023-02-10T14:37:54;101617.41;;;7.34;51.59
63556;BME280;49700;48.072;7.800;2023-02-10T14:40:22;101604.28;;;7.37;51.36
63556;BME280;49700;48.072;7.800;2023-02-10T14:42:48;101615.56;;;7.39;51.43
63556;BME280;49700;48.072;7.800;2023-02-10T14:45:22;101613.88;;;7.38;51.49